sensor_id;sensor_type;location;lat;lon;timestamp;P1;durP1;ratioP1;P2;durP2;ratioP2
71941;SDS011;59997;53.300;-6.260;2022-10-22T00:02:09;7.33;;;1.30;;
71941;SDS011;59997;53.300;-6.260;2022-10-22T00:04:39;6.85;;;1.00;;
71941;SDS011;59997;53.300;-6.260;2022-10-22T00:07:05;5.93;;;1.25;;
71941;SDS011;59997;53.300;-6.260;2022-10-22T00:09:30;8.13;;;1.10;;
71941;SDS011;59997;53.300;-6.260;2022-10-22T00:11:56;5.80;;;1.20;;
71941;SDS011;59997;53.300;-6.260;2022-10-22T00:14:22;6.87;;;1.13;;
71941;SDS011;59997;53.300;-6.260;2022-10-22T00:16:48;5.90;;;1.10;;
71941;SDS011;59997;53.300;-6.260;2022-10-22T00:19:14;6.10;;;0.70;;
71941;SDS011;59997;53.300;-6.260;2022-10-22T00:21:40;5.00;;;0.88;;
71941;SDS011;59997;53.300;-6.260;2022-10-22T00:24:06;5.05;;;0.80;;
71941;SDS011;59997;53.300;-6.260;2022-10-22T00:26:31;5.83;;;0.60;;
71941;SDS011;59997;53.300;-6.260;2022-10-22T00:28:57;6.15;;;0.80;;
71941;SDS011;59997;53.300;-6.260;2022-10-22T00:31:22;6.60;;;0.93;;
71941;SDS011;59997;53.300;-6.260;2022-10-22T00:33:48;7.00;;;0.80;;
71941;SDS011;59997;53.300;-6.260;2022-10-22T00:36:14;5.10;;;0.70;;
71941;SDS011;59997;53.300;-6.260;2022-10-22T00:38:40;6.32;;;0.70;;
71941;SDS011;59997;53.300;-6.260;2022-10-22T00:41:06;5.50;;;0.93;;
71941;SDS011;59997;53.300;-6.260;2022-10-22T00:43:32;5.57;;;1.35;;
71941;SDS011;59997;53.300;-6.260;2022-10-22T00:45:58;7.33;;;1.00;;
71941;SDS011;59997;53.300;-6.260;2022-10-22T00:48:25;10.75;;;0.90;;
71941;SDS011;59997;53.300;-6.260;2022-10-22T00:50:57;7.80;;;1.25;;
71941;SDS011;59997;53.300;-6.260;2022-10-22T00:53:31;6.00;;;0.73;;
71941;SDS011;59997;53.300;-6.260;2022-10-22T00:56:00;4.18;;;0.55;;
71941;SDS011;59997;53.300;-6.260;2022-10-22T00:58:27;6.70;;;0.60;;
71941;SDS011;59997;53.300;-6.260;2022-10-22T01:00:55;5.20;;;0.52;;
71941;SDS011;59997;53.300;-6.260;2022-10-22T01:03:21;4.43;;;0.53;;
71941;SDS011;59997;53.300;-6.260;2022-10-22T01:05:54;6.82;;;0.60;;
71941;SDS011;59997;53.300;-6.260;2022-10-22T01:08:26;5.90;;;0.75;;
71941;SDS011;59997;53.300;-6.260;2022-10-22T01:13:53;3.37;;;0.43;;
71941;SDS011;59997;53.300;-6.260;2022-10-22T01:16:39;5.03;;;0.45;;
71941;SDS011;59997;53.300;-6.260;2022-10-22T01:22:04;4.70;;;0.60;;
71941;SDS011;59997;53.300;-6.260;2022-10-22T01:30:21;6.05;;;0.47;;
71941;SDS011;59997;53.300;-6.260;2022-10-22T01:32:51;5.53;;;0.55;;
71941;SDS011;59997;53.300;-6.260;2022-10-22T01:35:28;3.67;;;0.45;;
71941;SDS011;59997;53.300;-6.260;2022-10-22T01:37:58;5.47;;;0.60;;
71941;SDS011;59997;53.300;-6.260;2022-10-22T01:40:27;3.23;;;0.53;;
71941;SDS011;59997;53.300;-6.260;2022-10-22T01:42:59;4.03;;;0.50;;
71941;SDS011;59997;53.300;-6.260;2022-10-22T01:45:30;4.65;;;0.60;;
71941;SDS011;59997;53.300;-6.260;2022-10-22T02:01:58;4.70;;;0.45;;
71941;SDS011;59997;53.300;-6.260;2022-10-22T02:07:15;3.67;;;0.40;;
71941;SDS011;59997;53.300;-6.260;2022-10-22T02:09:44;3.97;;;0.43;;
71941;SDS011;59997;53.300;-6.260;2022-10-22T02:12:11;4.25;;;0.50;;
71941;SDS011;59997;53.300;-6.260;2022-10-22T02:14:38;3.25;;;0.35;;
71941;SDS011;59997;53.300;-6.260;2022-10-22T02:17:08;6.85;;;0.50;;
71941;SDS011;59997;53.300;-6.260;2022-10-22T02:19:45;3.97;;;0.50;;
71941;SDS011;59997;53.300;-6.260;2022-10-22T02:22:17;6.07;;;0.45;;
71941;SDS011;59997;53.300;-6.260;2022-10-22T02:24:43;5.70;;;0.50;;
71941;SDS011;59997;53.300;-6.260;2022-10-22T02:32:22;3.85;;;0.40;;
71941;SDS011;59997;53.300;-6.260;2022-10-22T02:34:52;3.07;;;0.27;;
71941;SDS011;59997;53.300;-6.260;2022-10-22T02:37:20;5.10;;;0.40;;
71941;SDS011;59997;53.300;-6.260;2022-10-22T02:39:48;4.38;;;0.70;;
71941;SDS011;59997;53.300;-6.260;2022-10-22T02:42:15;4.22;;;0.55;;
71941;SDS011;59997;53.300;-6.260;2022-10-22T02:44:42;3.70;;;0.40;;
71941;SDS011;59997;53.300;-6.260;2022-10-22T02:47:08;4.60;;;0.67;;
71941;SDS011;59997;53.300;-6.260;2022-10-22T02:49:34;2.42;;;0.30;;
71941;SDS011;59997;53.300;-6.260;2022-10-22T02:52:00;6.17;;;0.33;;
71941;SDS011;59997;53.300;-6.260;2022-10-22T02:54:25;7.60;;;0.55;;
71941;SDS011;59997;53.300;-6.260;2022-10-22T02:56:51;3.60;;;0.20;;
71941;SDS011;59997;53.300;-6.260;2022-10-22T02:59:16;4.50;;;0.80;;
71941;SDS011;59997;53.300;-6.260;2022-10-22T03:01:42;4.25;;;0.40;;
71941;SDS011;59997;53.300;-6.260;2022-10-22T03:04:07;3.70;;;0.40;;
71941;SDS011;59997;53.300;-6.260;2022-10-22T03:06:33;2.30;;;0.38;;
71941;SDS011;59997;53.300;-6.260;2022-10-22T03:08:58;4.17;;;0.30;;
71941;SDS011;59997;53.300;-6.260;2022-10-22T03:11:24;5.20;;;0.37;;
71941;SDS011;59997;53.300;-6.260;2022-10-22T03:13:49;3.70;;;0.30;;
71941;SDS011;59997;53.300;-6.260;2022-10-22T03:16:15;4.50;;;0.50;;
71941;SDS011;59997;53.300;-6.260;2022-10-22T03:18:40;4.33;;;0.30;;
71941;SDS011;59997;53.300;-6.260;2022-10-22T03:21:19;3.93;;;0.40;;
71941;SDS011;59997;53.300;-6.260;2022-10-22T03:23:58;4.78;;;0.40;;
71941;SDS011;59997;53.300;-6.260;2022-10-22T03:26:26;4.25;;;0.40;;
71941;SDS011;59997;53.300;-6.260;2022-10-22T03:28:52;4.60;;;0.80;;
71941;SDS011;59997;53.300;-6.260;2022-10-22T03:31:18;5.57;;;0.60;;
71941;SDS011;59997;53.300;-6.260;2022-10-22T03:33:44;4.80;;;0.53;;
71941;SDS011;59997;53.300;-6.260;2022-10-22T03:36:09;3.70;;;0.40;;
71941;SDS011;59997;53.300;-6.260;2022-10-22T03:38:38;3.58;;;0.30;;
71941;SDS011;59997;53.300;-6.260;2022-10-22T03:41:04;3.07;;;0.30;;
71941;SDS011;59997;53.300;-6.260;2022-10-22T03:43:32;5.15;;;0.50;;
71941;SDS011;59997;53.300;-6.260;2022-10-22T03:45:59;4.35;;;0.60;;
71941;SDS011;59997;53.300;-6.260;2022-10-22T03:48:24;4.53;;;0.60;;
71941;SDS011;59997;53.300;-6.260;2022-10-22T03:50:50;7.43;;;0.60;;
71941;SDS011;59997;53.300;-6.260;2022-10-22T03:53:15;8.03;;;0.50;;
71941;SDS011;59997;53.300;-6.260;2022-10-22T03:55:41;7.57;;;0.60;;
71941;SDS011;59997;53.300;-6.260;2022-10-22T03:58:07;4.00;;;0.60;;
71941;SDS011;59997;53.300;-6.260;2022-10-22T04:00:33;6.17;;;0.60;;
71941;SDS011;59997;53.300;-6.260;2022-10-22T04:02:59;6.53;;;0.70;;
71941;SDS011;59997;53.300;-6.260;2022-10-22T04:05:25;5.93;;;0.50;;
71941;SDS011;59997;53.300;-6.260;2022-10-22T04:07:51;7.47;;;0.90;;
71941;SDS011;59997;53.300;-6.260;2022-10-22T04:10:17;7.00;;;0.57;;
71941;SDS011;59997;53.300;-6.260;2022-10-22T04:12:45;5.47;;;0.50;;
71941;SDS011;59997;53.300;-6.260;2022-10-22T04:15:12;4.53;;;0.70;;
71941;SDS011;59997;53.300;-6.260;2022-10-22T04:17:37;7.47;;;0.90;;
71941;SDS011;59997;53.300;-6.260;2022-10-22T04:20:03;5.65;;;0.60;;
71941;SDS011;59997;53.300;-6.260;2022-10-22T04:22:29;5.93;;;0.70;;
71941;SDS011;59997;53.300;-6.260;2022-10-22T04:24:57;7.70;;;0.80;;
71941;SDS011;59997;53.300;-6.260;2022-10-22T04:27:23;7.47;;;0.70;;
71941;SDS011;59997;53.300;-6.260;2022-10-22T04:29:48;5.57;;;0.50;;
71941;SDS011;59997;53.300;-6.260;2022-10-22T04:32:16;8.10;;;1.23;;
71941;SDS011;59997;53.300;-6.260;2022-10-22T04:34:41;12.53;;;1.67;;
71941;SDS011;59997;53.300;-6.260;2022-10-22T04:37:07;9.90;;;1.10;;
71941;SDS011;59997;53.300;-6.260;2022-10-22T04:39:34;11.30;;;0.90;;
71941;SDS011;59997;53.300;-6.260;2022-10-22T04:42:00;10.23;;;1.48;;
71941;SDS011;59997;53.300;-6.260;2022-10-22T04:44:26;6.13;;;0.98;;
71941;SDS011;59997;53.300;-6.260;2022-10-22T04:46:52;10.77;;;0.85;;
71941;SDS011;59997;53.300;-6.260;2022-10-22T04:49:17;8.00;;;0.93;;
71941;SDS011;59997;53.300;-6.260;2022-10-22T04:51:44;11.18;;;0.90;;
71941;SDS011;59997;53.300;-6.260;2022-10-22T04:54:09;9.90;;;1.63;;
71941;SDS011;59997;53.300;-6.260;2022-10-22T04:56:35;8.87;;;1.20;;
71941;SDS011;59997;53.300;-6.260;2022-10-22T04:59:02;11.73;;;1.30;;
71941;SDS011;59997;53.300;-6.260;2022-10-22T05:01:37;11.38;;;1.10;;
71941;SDS011;59997;53.300;-6.260;2022-10-22T05:04:05;8.25;;;0.70;;
71941;SDS011;59997;53.300;-6.260;2022-10-22T05:06:33;9.77;;;1.35;;
71941;SDS011;59997;53.300;-6.260;2022-10-22T05:09:01;9.75;;;1.10;;
71941;SDS011;59997;53.300;-6.260;2022-10-22T05:11:32;5.17;;;0.73;;
71941;SDS011;59997;53.300;-6.260;2022-10-22T05:14:00;7.60;;;0.80;;
71941;SDS011;59997;53.300;-6.260;2022-10-22T05:16:29;11.50;;;1.58;;
71941;SDS011;59997;53.300;-6.260;2022-10-22T05:18:56;8.07;;;1.02;;
71941;SDS011;59997;53.300;-6.260;2022-10-22T05:21:22;8.95;;;0.65;;
71941;SDS011;59997;53.300;-6.260;2022-10-22T05:23:48;11.60;;;1.13;;
71941;SDS011;59997;53.300;-6.260;2022-10-22T05:26:16;10.80;;;1.23;;
71941;SDS011;59997;53.300;-6.260;2022-10-22T05:28:44;10.98;;;1.15;;
71941;SDS011;59997;53.300;-6.260;2022-10-22T05:31:11;8.48;;;1.13;;
71941;SDS011;59997;53.300;-6.260;2022-10-22T05:33:37;5.73;;;0.77;;
71941;SDS011;59997;53.300;-6.260;2022-10-22T05:36:03;6.93;;;1.00;;
71941;SDS011;59997;53.300;-6.260;2022-10-22T05:38:31;9.10;;;0.80;;
71941;SDS011;59997;53.300;-6.260;2022-10-22T05:41:01;9.07;;;1.10;;
71941;SDS011;59997;53.300;-6.260;2022-10-22T05:43:44;7.03;;;0.70;;
71941;SDS011;59997;53.300;-6.260;2022-10-22T05:46:12;6.97;;;0.73;;
71941;SDS011;59997;53.300;-6.260;2022-10-22T05:48:40;14.52;;;0.90;;
71941;SDS011;59997;53.300;-6.260;2022-10-22T05:51:09;11.95;;;0.75;;
71941;SDS011;59997;53.300;-6.260;2022-10-22T05:53:37;9.87;;;1.20;;
71941;SDS011;59997;53.300;-6.260;2022-10-22T05:56:05;12.60;;;0.95;;
71941;SDS011;59997;53.300;-6.260;2022-10-22T05:58:32;7.65;;;0.73;;
71941;SDS011;59997;53.300;-6.260;2022-10-22T06:01:05;12.55;;;0.82;;
71941;SDS011;59997;53.300;-6.260;2022-10-22T06:03:35;6.63;;;0.68;;
71941;SDS011;59997;53.300;-6.260;2022-10-22T06:06:02;5.20;;;0.90;;
71941;SDS011;59997;53.300;-6.260;2022-10-22T06:08:31;12.15;;;1.10;;
71941;SDS011;59997;53.300;-6.260;2022-10-22T06:10:57;5.83;;;0.60;;
71941;SDS011;59997;53.300;-6.260;2022-10-22T06:13:23;7.93;;;0.68;;
71941;SDS011;59997;53.300;-6.260;2022-10-22T06:15:49;9.73;;;1.15;;
71941;SDS011;59997;53.300;-6.260;2022-10-22T06:18:17;14.30;;;1.03;;
71941;SDS011;59997;53.300;-6.260;2022-10-22T06:20:43;6.93;;;0.50;;
71941;SDS011;59997;53.300;-6.260;2022-10-22T06:23:10;9.35;;;0.60;;
71941;SDS011;59997;53.300;-6.260;2022-10-22T06:25:36;6.77;;;0.53;;
71941;SDS011;59997;53.300;-6.260;2022-10-22T06:28:01;12.57;;;0.90;;
71941;SDS011;59997;53.300;-6.260;2022-10-22T06:30:27;6.53;;;0.53;;
71941;SDS011;59997;53.300;-6.260;2022-10-22T06:32:52;9.93;;;0.80;;
71941;SDS011;59997;53.300;-6.260;2022-10-22T06:35:17;6.25;;;0.60;;
71941;SDS011;59997;53.300;-6.260;2022-10-22T06:37:43;8.03;;;0.70;;
71941;SDS011;59997;53.300;-6.260;2022-10-22T06:40:09;8.57;;;1.70;;
71941;SDS011;59997;53.300;-6.260;2022-10-22T06:42:35;5.75;;;0.80;;
71941;SDS011;59997;53.300;-6.260;2022-10-22T06:45:00;6.73;;;0.60;;
71941;SDS011;59997;53.300;-6.260;2022-10-22T06:47:26;7.00;;;0.90;;
71941;SDS011;59997;53.300;-6.260;2022-10-22T06:49:51;6.10;;;0.60;;
71941;SDS011;59997;53.300;-6.260;2022-10-22T06:52:16;6.63;;;0.60;;
71941;SDS011;59997;53.300;-6.260;2022-10-22T06:54:42;5.93;;;0.90;;
71941;SDS011;59997;53.300;-6.260;2022-10-22T06:57:07;10.43;;;0.93;;
71941;SDS011;59997;53.300;-6.260;2022-10-22T06:59:33;8.35;;;0.80;;
71941;SDS011;59997;53.300;-6.260;2022-10-22T07:01:58;7.27;;;0.50;;
71941;SDS011;59997;53.300;-6.260;2022-10-22T07:04:24;7.33;;;0.50;;
71941;SDS011;59997;53.300;-6.260;2022-10-22T07:06:49;9.93;;;0.90;;
71941;SDS011;59997;53.300;-6.260;2022-10-22T07:09:15;5.88;;;0.60;;
71941;SDS011;59997;53.300;-6.260;2022-10-22T07:11:41;7.47;;;0.80;;
71941;SDS011;59997;53.300;-6.260;2022-10-22T07:14:09;6.97;;;0.50;;
71941;SDS011;59997;53.300;-6.260;2022-10-22T07:16:35;6.93;;;0.45;;
71941;SDS011;59997;53.300;-6.260;2022-10-22T07:19:02;4.33;;;0.40;;
71941;SDS011;59997;53.300;-6.260;2022-10-22T07:21:29;6.13;;;0.38;;
71941;SDS011;59997;53.300;-6.260;2022-10-22T07:23:55;6.30;;;0.50;;
71941;SDS011;59997;53.300;-6.260;2022-10-22T07:26:21;6.30;;;0.70;;
71941;SDS011;59997;53.300;-6.260;2022-10-22T07:28:49;4.35;;;0.77;;
71941;SDS011;59997;53.300;-6.260;2022-10-22T07:31:15;4.77;;;0.60;;
71941;SDS011;59997;53.300;-6.260;2022-10-22T07:33:41;6.93;;;0.50;;
71941;SDS011;59997;53.300;-6.260;2022-10-22T07:36:08;5.32;;;0.57;;
71941;SDS011;59997;53.300;-6.260;2022-10-22T07:38:36;10.20;;;1.27;;
71941;SDS011;59997;53.300;-6.260;2022-10-22T07:41:02;8.53;;;0.67;;
71941;SDS011;59997;53.300;-6.260;2022-10-22T07:43:28;8.65;;;0.68;;
71941;SDS011;59997;53.300;-6.260;2022-10-22T07:45:54;6.00;;;0.50;;
71941;SDS011;59997;53.300;-6.260;2022-10-22T07:48:20;5.70;;;0.40;;
71941;SDS011;59997;53.300;-6.260;2022-10-22T07:50:45;8.40;;;0.60;;
71941;SDS011;59997;53.300;-6.260;2022-10-22T07:53:13;5.97;;;0.85;;
71941;SDS011;59997;53.300;-6.260;2022-10-22T07:55:39;8.33;;;0.97;;
71941;SDS011;59997;53.300;-6.260;2022-10-22T07:58:04;9.93;;;0.90;;
71941;SDS011;59997;53.300;-6.260;2022-10-22T08:00:30;6.23;;;0.40;;
71941;SDS011;59997;53.300;-6.260;2022-10-22T08:02:55;4.72;;;0.40;;
71941;SDS011;59997;53.300;-6.260;2022-10-22T08:05:21;10.17;;;0.80;;
71941;SDS011;59997;53.300;-6.260;2022-10-22T08:07:46;4.77;;;0.50;;
71941;SDS011;59997;53.300;-6.260;2022-10-22T08:10:12;5.93;;;0.50;;
71941;SDS011;59997;53.300;-6.260;2022-10-22T08:12:38;9.27;;;0.63;;
71941;SDS011;59997;53.300;-6.260;2022-10-22T08:15:05;7.88;;;0.60;;
71941;SDS011;59997;53.300;-6.260;2022-10-22T08:17:32;6.97;;;0.50;;
71941;SDS011;59997;53.300;-6.260;2022-10-22T08:19:57;6.40;;;0.50;;
71941;SDS011;59997;53.300;-6.260;2022-10-22T08:22:22;6.13;;;0.40;;
71941;SDS011;59997;53.300;-6.260;2022-10-22T08:24:48;5.88;;;0.50;;
71941;SDS011;59997;53.300;-6.260;2022-10-22T08:27:15;7.43;;;0.52;;
71941;SDS011;59997;53.300;-6.260;2022-10-22T08:29:40;4.80;;;0.50;;
71941;SDS011;59997;53.300;-6.260;2022-10-22T08:32:06;4.90;;;0.50;;
71941;SDS011;59997;53.300;-6.260;2022-10-22T08:34:31;8.57;;;0.90;;
71941;SDS011;59997;53.300;-6.260;2022-10-22T08:36:57;6.40;;;0.80;;
71941;SDS011;59997;53.300;-6.260;2022-10-22T08:39:23;3.33;;;0.40;;
71941;SDS011;59997;53.300;-6.260;2022-10-22T08:41:59;5.45;;;0.65;;
71941;SDS011;59997;53.300;-6.260;2022-10-22T08:49:58;9.27;;;0.60;;
71941;SDS011;59997;53.300;-6.260;2022-10-22T08:52:25;5.30;;;0.80;;
71941;SDS011;59997;53.300;-6.260;2022-10-22T09:00:10;9.02;;;1.10;;
71941;SDS011;59997;53.300;-6.260;2022-10-22T09:08:29;7.93;;;0.88;;
71941;SDS011;59997;53.300;-6.260;2022-10-22T09:11:02;6.90;;;0.97;;
71941;SDS011;59997;53.300;-6.260;2022-10-22T09:13:33;7.10;;;0.70;;
71941;SDS011;59997;53.300;-6.260;2022-10-22T09:15:59;6.55;;;0.60;;
71941;SDS011;59997;53.300;-6.260;2022-10-22T09:18:37;6.10;;;0.50;;
71941;SDS011;59997;53.300;-6.260;2022-10-22T09:26:21;6.72;;;0.80;;
71941;SDS011;59997;53.300;-6.260;2022-10-22T09:28:48;8.17;;;0.90;;
71941;SDS011;59997;53.300;-6.260;2022-10-22T09:31:14;5.75;;;0.60;;
71941;SDS011;59997;53.300;-6.260;2022-10-22T09:33:40;6.30;;;0.97;;
71941;SDS011;59997;53.300;-6.260;2022-10-22T09:36:08;7.32;;;1.00;;
71941;SDS011;59997;53.300;-6.260;2022-10-22T09:38:41;6.72;;;1.10;;
71941;SDS011;59997;53.300;-6.260;2022-10-22T09:41:10;8.73;;;1.40;;
71941;SDS011;59997;53.300;-6.260;2022-10-22T09:43:36;6.43;;;0.98;;
71941;SDS011;59997;53.300;-6.260;2022-10-22T09:46:03;6.07;;;0.90;;
71941;SDS011;59997;53.300;-6.260;2022-10-22T09:48:33;4.70;;;1.00;;
71941;SDS011;59997;53.300;-6.260;2022-10-22T09:51:13;9.00;;;1.20;;
71941;SDS011;59997;53.300;-6.260;2022-10-22T09:53:41;6.47;;;1.48;;
71941;SDS011;59997;53.300;-6.260;2022-10-22T09:56:09;7.22;;;1.45;;
71941;SDS011;59997;53.300;-6.260;2022-10-22T09:59:00;6.45;;;1.50;;
71941;SDS011;59997;53.300;-6.260;2022-10-22T10:01:34;6.00;;;1.63;;
71941;SDS011;59997;53.300;-6.260;2022-10-22T10:04:04;6.95;;;1.45;;
71941;SDS011;59997;53.300;-6.260;2022-10-22T10:06:32;7.50;;;1.48;;
71941;SDS011;59997;53.300;-6.260;2022-10-22T10:08:58;6.78;;;1.42;;
71941;SDS011;59997;53.300;-6.260;2022-10-22T10:14:34;7.90;;;1.50;;
71941;SDS011;59997;53.300;-6.260;2022-10-22T10:23:07;6.70;;;1.67;;
71941;SDS011;59997;53.300;-6.260;2022-10-22T10:34:10;6.22;;;1.35;;
71941;SDS011;59997;53.300;-6.260;2022-10-22T10:53:16;5.20;;;1.40;;
71941;SDS011;59997;53.300;-6.260;2022-10-22T11:07:33;8.13;;;1.47;;
71941;SDS011;59997;53.300;-6.260;2022-10-22T11:10:08;7.70;;;1.40;;
71941;SDS011;59997;53.300;-6.260;2022-10-22T11:12:48;8.45;;;1.67;;
71941;SDS011;59997;53.300;-6.260;2022-10-22T11:15:28;8.15;;;1.83;;
71941;SDS011;59997;53.300;-6.260;2022-10-22T11:18:00;6.60;;;1.73;;
71941;SDS011;59997;53.300;-6.260;2022-10-22T11:20:37;7.83;;;1.70;;
71941;SDS011;59997;53.300;-6.260;2022-10-22T11:23:11;7.43;;;1.30;;
71941;SDS011;59997;53.300;-6.260;2022-10-22T11:25:45;6.30;;;1.20;;
71941;SDS011;59997;53.300;-6.260;2022-10-22T11:28:21;6.50;;;1.73;;
71941;SDS011;59997;53.300;-6.260;2022-10-22T11:31:01;7.75;;;1.65;;
71941;SDS011;59997;53.300;-6.260;2022-10-22T11:33:38;6.87;;;1.57;;
71941;SDS011;59997;53.300;-6.260;2022-10-22T11:36:21;9.45;;;1.52;;
71941;SDS011;59997;53.300;-6.260;2022-10-22T11:38:49;9.00;;;1.55;;
71941;SDS011;59997;53.300;-6.260;2022-10-22T11:41:17;7.13;;;1.33;;
71941;SDS011;59997;53.300;-6.260;2022-10-22T11:46:45;6.37;;;1.50;;
71941;SDS011;59997;53.300;-6.260;2022-10-22T11:49:23;5.70;;;1.50;;
71941;SDS011;59997;53.300;-6.260;2022-10-22T11:51:51;5.82;;;1.70;;
71941;SDS011;59997;53.300;-6.260;2022-10-22T11:59:46;6.13;;;1.10;;
71941;SDS011;59997;53.300;-6.260;2022-10-22T12:04:53;6.78;;;1.50;;
71941;SDS011;59997;53.300;-6.260;2022-10-22T12:07:48;9.05;;;1.55;;
71941;SDS011;59997;53.300;-6.260;2022-10-22T12:10:19;7.30;;;1.33;;
71941;SDS011;59997;53.300;-6.260;2022-10-22T12:13:04;6.13;;;1.20;;
71941;SDS011;59997;53.300;-6.260;2022-10-22T12:15:45;8.25;;;1.25;;
71941;SDS011;59997;53.300;-6.260;2022-10-22T12:18:12;6.45;;;1.15;;
71941;SDS011;59997;53.300;-6.260;2022-10-22T12:20:38;7.93;;;0.90;;
71941;SDS011;59997;53.300;-6.260;2022-10-22T12:23:04;4.88;;;0.77;;
71941;SDS011;59997;53.300;-6.260;2022-10-22T12:25:32;5.43;;;1.07;;
71941;SDS011;59997;53.300;-6.260;2022-10-22T12:27:58;5.22;;;0.90;;
71941;SDS011;59997;53.300;-6.260;2022-10-22T12:30:31;4.50;;;0.90;;
71941;SDS011;59997;53.300;-6.260;2022-10-22T12:33:02;4.53;;;1.00;;
71941;SDS011;59997;53.300;-6.260;2022-10-22T12:35:34;5.57;;;1.02;;
71941;SDS011;59997;53.300;-6.260;2022-10-22T12:38:11;4.80;;;1.13;;
71941;SDS011;59997;53.300;-6.260;2022-10-22T12:40:39;6.70;;;1.00;;
71941;SDS011;59997;53.300;-6.260;2022-10-22T12:43:15;6.32;;;1.05;;
71941;SDS011;59997;53.300;-6.260;2022-10-22T12:45:44;6.15;;;0.80;;
71941;SDS011;59997;53.300;-6.260;2022-10-22T12:48:16;7.47;;;1.50;;
71941;SDS011;59997;53.300;-6.260;2022-10-22T12:50:46;5.33;;;0.90;;
71941;SDS011;59997;53.300;-6.260;2022-10-22T12:53:34;6.47;;;1.40;;
71941;SDS011;59997;53.300;-6.260;2022-10-22T12:56:04;6.40;;;1.33;;
71941;SDS011;59997;53.300;-6.260;2022-10-22T12:58:37;6.22;;;1.10;;
71941;SDS011;59997;53.300;-6.260;2022-10-22T13:01:05;7.18;;;1.00;;
71941;SDS011;59997;53.300;-6.260;2022-10-22T13:03:32;7.87;;;1.47;;
71941;SDS011;59997;53.300;-6.260;2022-10-22T13:11:33;4.82;;;1.33;;
71941;SDS011;59997;53.300;-6.260;2022-10-22T13:14:18;9.13;;;1.63;;
71941;SDS011;59997;53.300;-6.260;2022-10-22T13:17:06;8.23;;;1.50;;
71941;SDS011;59997;53.300;-6.260;2022-10-22T13:22:32;6.05;;;1.30;;
71941;SDS011;59997;53.300;-6.260;2022-10-22T13:25:24;6.97;;;0.90;;
71941;SDS011;59997;53.300;-6.260;2022-10-22T13:27:56;5.82;;;0.88;;
71941;SDS011;59997;53.300;-6.260;2022-10-22T13:30:28;6.37;;;0.90;;
71941;SDS011;59997;53.300;-6.260;2022-10-22T13:32:59;6.97;;;1.00;;
71941;SDS011;59997;53.300;-6.260;2022-10-22T13:35:31;8.20;;;1.60;;
71941;SDS011;59997;53.300;-6.260;2022-10-22T13:38:00;8.75;;;0.88;;
71941;SDS011;59997;53.300;-6.260;2022-10-22T13:40:26;6.50;;;0.77;;
71941;SDS011;59997;53.300;-6.260;2022-10-22T13:42:52;8.03;;;1.30;;
71941;SDS011;59997;53.300;-6.260;2022-10-22T13:45:18;10.27;;;1.15;;
71941;SDS011;59997;53.300;-6.260;2022-10-22T13:47:44;6.63;;;1.30;;
71941;SDS011;59997;53.300;-6.260;2022-10-22T13:50:14;7.95;;;1.20;;
71941;SDS011;59997;53.300;-6.260;2022-10-22T13:52:43;9.38;;;0.98;;
71941;SDS011;59997;53.300;-6.260;2022-10-22T13:55:14;10.60;;;1.17;;
71941;SDS011;59997;53.300;-6.260;2022-10-22T13:57:45;7.03;;;1.30;;
71941;SDS011;59997;53.300;-6.260;2022-10-22T14:00:16;6.43;;;1.20;;
71941;SDS011;59997;53.300;-6.260;2022-10-22T14:02:43;6.35;;;1.15;;
71941;SDS011;59997;53.300;-6.260;2022-10-22T14:05:11;10.45;;;1.40;;
71941;SDS011;59997;53.300;-6.260;2022-10-22T14:07:37;8.52;;;1.00;;
71941;SDS011;59997;53.300;-6.260;2022-10-22T14:12:58;7.80;;;0.80;;
71941;SDS011;59997;53.300;-6.260;2022-10-22T14:15:24;8.20;;;1.20;;
71941;SDS011;59997;53.300;-6.260;2022-10-22T14:17:55;9.70;;;0.90;;
71941;SDS011;59997;53.300;-6.260;2022-10-22T14:20:23;7.95;;;1.17;;
71941;SDS011;59997;53.300;-6.260;2022-10-22T14:22:50;7.90;;;0.90;;
71941;SDS011;59997;53.300;-6.260;2022-10-22T14:25:17;9.30;;;0.80;;
71941;SDS011;59997;53.300;-6.260;2022-10-22T14:27:45;7.97;;;0.90;;
71941;SDS011;59997;53.300;-6.260;2022-10-22T14:30:15;7.00;;;0.93;;
71941;SDS011;59997;53.300;-6.260;2022-10-22T14:32:43;9.45;;;0.85;;
71941;SDS011;59997;53.300;-6.260;2022-10-22T14:35:12;9.93;;;1.00;;
71941;SDS011;59997;53.300;-6.260;2022-10-22T14:37:39;7.45;;;0.80;;
71941;SDS011;59997;53.300;-6.260;2022-10-22T14:40:05;6.67;;;0.80;;
71941;SDS011;59997;53.300;-6.260;2022-10-22T14:42:33;7.63;;;0.85;;
71941;SDS011;59997;53.300;-6.260;2022-10-22T14:45:05;9.77;;;0.90;;
71941;SDS011;59997;53.300;-6.260;2022-10-22T14:47:31;8.23;;;0.80;;
71941;SDS011;59997;53.300;-6.260;2022-10-22T14:49:57;5.32;;;0.88;;
71941;SDS011;59997;53.300;-6.260;2022-10-22T14:52:22;8.77;;;0.90;;
71941;SDS011;59997;53.300;-6.260;2022-10-22T14:54:48;7.10;;;1.15;;
71941;SDS011;59997;53.300;-6.260;2022-10-22T14:57:13;6.10;;;0.80;;
71941;SDS011;59997;53.300;-6.260;2022-10-22T14:59:40;12.00;;;0.98;;
71941;SDS011;59997;53.300;-6.260;2022-10-22T15:02:07;9.20;;;0.90;;
71941;SDS011;59997;53.300;-6.260;2022-10-22T15:04:37;8.70;;;0.80;;
71941;SDS011;59997;53.300;-6.260;2022-10-22T15:07:02;5.97;;;1.00;;
71941;SDS011;59997;53.300;-6.260;2022-10-22T15:09:28;6.87;;;1.07;;
71941;SDS011;59997;53.300;-6.260;2022-10-22T15:11:54;8.18;;;1.00;;
71941;SDS011;59997;53.300;-6.260;2022-10-22T15:14:19;9.00;;;1.03;;
71941;SDS011;59997;53.300;-6.260;2022-10-22T15:16:45;7.03;;;0.77;;
71941;SDS011;59997;53.300;-6.260;2022-10-22T15:19:10;7.70;;;0.90;;
71941;SDS011;59997;53.300;-6.260;2022-10-22T15:21:36;7.30;;;0.85;;
71941;SDS011;59997;53.300;-6.260;2022-10-22T15:24:02;5.87;;;1.00;;
71941;SDS011;59997;53.300;-6.260;2022-10-22T15:26:28;6.63;;;0.93;;
71941;SDS011;59997;53.300;-6.260;2022-10-22T15:28:54;7.43;;;0.80;;
71941;SDS011;59997;53.300;-6.260;2022-10-22T15:34:12;6.40;;;0.93;;
71941;SDS011;59997;53.300;-6.260;2022-10-22T15:36:42;5.18;;;0.57;;
71941;SDS011;59997;53.300;-6.260;2022-10-22T15:39:08;9.83;;;1.03;;
71941;SDS011;59997;53.300;-6.260;2022-10-22T15:41:34;9.32;;;0.90;;
71941;SDS011;59997;53.300;-6.260;2022-10-22T15:44:01;6.40;;;0.82;;
71941;SDS011;59997;53.300;-6.260;2022-10-22T15:46:26;7.97;;;1.15;;
71941;SDS011;59997;53.300;-6.260;2022-10-22T15:48:53;5.73;;;0.60;;
71941;SDS011;59997;53.300;-6.260;2022-10-22T15:51:19;7.13;;;0.70;;
71941;SDS011;59997;53.300;-6.260;2022-10-22T15:53:51;6.97;;;0.95;;
71941;SDS011;59997;53.300;-6.260;2022-10-22T15:56:18;7.70;;;0.90;;
71941;SDS011;59997;53.300;-6.260;2022-10-22T15:58:44;5.53;;;0.50;;
71941;SDS011;59997;53.300;-6.260;2022-10-22T16:01:10;8.17;;;0.90;;
71941;SDS011;59997;53.300;-6.260;2022-10-22T16:03:37;7.97;;;1.38;;
71941;SDS011;59997;53.300;-6.260;2022-10-22T16:06:03;9.10;;;1.10;;
71941;SDS011;59997;53.300;-6.260;2022-10-22T16:08:29;6.70;;;1.10;;
71941;SDS011;59997;53.300;-6.260;2022-10-22T16:10:55;10.85;;;1.42;;
71941;SDS011;59997;53.300;-6.260;2022-10-22T16:13:21;7.83;;;1.10;;
71941;SDS011;59997;53.300;-6.260;2022-10-22T16:15:48;6.68;;;0.98;;
71941;SDS011;59997;53.300;-6.260;2022-10-22T16:18:14;8.77;;;0.93;;
71941;SDS011;59997;53.300;-6.260;2022-10-22T16:20:40;6.87;;;1.20;;
71941;SDS011;59997;53.300;-6.260;2022-10-22T16:23:06;9.32;;;0.98;;
71941;SDS011;59997;53.300;-6.260;2022-10-22T16:25:41;8.97;;;1.13;;
71941;SDS011;59997;53.300;-6.260;2022-10-22T16:28:07;6.03;;;0.95;;
71941;SDS011;59997;53.300;-6.260;2022-10-22T16:30:34;8.77;;;0.95;;
71941;SDS011;59997;53.300;-6.260;2022-10-22T16:33:01;6.85;;;1.00;;
71941;SDS011;59997;53.300;-6.260;2022-10-22T16:35:28;7.18;;;1.10;;
71941;SDS011;59997;53.300;-6.260;2022-10-22T16:37:54;8.80;;;0.90;;
71941;SDS011;59997;53.300;-6.260;2022-10-22T16:40:20;9.25;;;1.67;;
71941;SDS011;59997;53.300;-6.260;2022-10-22T16:42:46;9.00;;;0.80;;
71941;SDS011;59997;53.300;-6.260;2022-10-22T16:45:12;8.43;;;0.93;;
71941;SDS011;59997;53.300;-6.260;2022-10-22T16:47:37;7.37;;;0.60;;